Time;durP1;ratioP1;P1;durP2;ratioP2;P2;SDS_P1;SDS_P2;PMS_P1;PMS_P2;Temp;Humidity;BMP_temperature;BMP_pressure;BME280_temperature;BME280_humidity;BME280_pressure;Samples;Min_cycle;Max_cycle;Signal;HPM_P1;HPM_P2
2021/06/29 00:00:15;;;;;;;16.50;14.77;;;19.00;68.80;;;;;;5047469;28;20021;-82
2021/06/29 00:02:41;;;;;;;15.40;13.77;;;19.00;68.80;;;;;;5046073;28;20037;-83
2021/06/29 00:05:09;;;;;;;16.73;14.80;;;19.00;68.90;;;;;;5046294;28;20040;-84
2021/06/29 00:07:35;;;;;;;14.93;13.45;;;19.00;68.90;;;;;;5046156;28;20473;-82
2021/06/29 00:10:05;;;;;;;16.10;14.43;;;18.90;68.80;;;;;;5029911;28;20119;-81
2021/06/29 00:12:31;;;;;;;15.55;13.95;;;18.90;68.90;;;;;;5025875;28;20065;-81
2021/06/29 00:14:57;;;;;;;19.52;14.68;;;18.90;68.90;;;;;;5025804;28;20128;-83
2021/06/29 00:17:23;;;;;;;15.40;13.80;;;18.90;68.90;;;;;;5016671;28;20128;-81
2021/06/29 00:19:49;;;;;;;15.68;13.98;;;18.90;69.00;;;;;;5026065;28;20029;-82
2021/06/29 00:22:15;;;;;;;16.25;14.43;;;18.90;69.00;;;;;;5026774;28;20040;-82
2021/06/29 00:24:41;;;;;;;16.92;15.30;;;18.90;69.00;;;;;;5026066;28;20042;-81
2021/06/29 00:27:07;;;;;;;17.48;15.73;;;18.90;69.00;;;;;;5025556;28;20044;-81
2021/06/29 00:29:33;;;;;;;16.73;14.93;;;18.80;68.90;;;;;;5040403;28;20044;-81
2021/06/29 00:31:59;;;;;;;16.38;14.70;;;18.80;69.40;;;;;;5046817;28;20048;-81
2021/06/29 00:34:25;;;;;;;21.80;16.63;;;18.80;68.90;;;;;;5045672;28;20040;-81
2021/06/29 00:36:51;;;;;;;18.08;15.95;;;18.80;68.90;;;;;;5046259;28;20025;-81
2021/06/29 00:39:17;;;;;;;18.20;16.35;;;18.80;68.90;;;;;;5044606;28;20091;-82
2021/06/29 00:41:43;;;;;;;18.58;16.33;;;18.80;69.00;;;;;;5046341;28;20025;-82
2021/06/29 00:44:22;;;;;;;18.80;16.85;;;18.80;69.00;;;;;;5016487;28;20032;-81
2021/06/29 00:46:49;;;;;;;18.10;16.05;;;18.80;69.10;;;;;;5025130;28;20543;-81
2021/06/29 00:49:15;;;;;;;19.02;16.63;;;18.70;68.90;;;;;;5036378;28;20029;-84
2021/06/29 00:51:42;;;;;;;17.67;15.85;;;18.70;68.90;;;;;;5045896;28;20049;-83
2021/06/29 00:54:09;;;;;;;18.38;15.45;;;18.70;69.00;;;;;;5025822;28;20099;-83
2021/06/29 00:56:38;;;;;;;17.13;15.10;;;18.70;69.00;;;;;;5025399;28;20029;-80
2021/06/29 00:59:04;;;;;;;18.70;16.80;;;18.70;69.10;;;;;;5031718;28;20061;-82
2021/06/29 01:01:31;;;;;;;18.25;16.33;;;18.70;69.10;;;;;;5025658;28;20055;-81
2021/06/29 01:03:57;;;;;;;18.55;16.63;;;18.70;69.10;;;;;;5036805;28;20029;-82
2021/06/29 01:06:23;;;;;;;20.08;17.98;;;18.60;69.00;;;;;;5046670;28;20041;-81
2021/06/29 01:08:49;;;;;;;17.48;15.60;;;18.70;69.20;;;;;;5046560;28;20039;-81
2021/06/29 01:11:15;;;;;;;20.02;17.95;;;18.60;69.00;;;;;;5046369;28;20112;-81
2021/06/29 01:13:44;;;;;;;19.95;17.52;;;18.60;69.10;;;;;;5046713;28;20037;-80
2021/06/29 01:16:11;;;;;;;22.33;18.65;;;18.60;69.10;;;;;;5046622;28;20303;-81
2021/06/29 01:18:40;;;;;;;18.33;16.52;;;18.60;69.10;;;;;;5046341;28;20147;-82
2021/06/29 01:21:11;;;;;;;20.40;18.35;;;18.60;69.20;;;;;;5046662;28;20033;-81
2021/06/29 01:23:38;;;;;;;22.05;18.35;;;18.50;69.00;;;;;;5030031;28;20038;-82
2021/06/29 01:31:24;;;;;;;20.48;18.30;;;18.50;69.10;;;;;;5038346;28;20802;-81
2021/06/29 01:33:51;;;;;;;21.92;19.70;;;18.50;69.10;;;;;;5041742;28;20060;-81
2021/06/29 01:36:19;;;;;;;21.13;18.73;;;18.50;69.10;;;;;;5051479;28;20024;-82
2021/06/29 01:38:47;;;;;;;25.70;20.55;;;18.50;69.20;;;;;;5050898;28;20025;-81
2021/06/29 01:41:15;;;;;;;23.02;19.75;;;18.50;69.20;;;;;;5066844;28;20056;-81
2021/06/29 01:43:54;;;;;;;22.85;20.55;;;18.40;69.00;;;;;;5051486;28;20510;-80
2021/06/29 01:46:22;;;;;;;21.98;19.77;;;18.40;69.00;;;;;;5050691;28;20518;-81
2021/06/29 01:48:51;;;;;;;22.58;20.20;;;18.40;69.00;;;;;;5069109;28;20086;-80
2021/06/29 01:51:18;;;;;;;22.77;20.45;;;18.40;69.10;;;;;;5053772;28;20029;-81
2021/06/29 01:53:46;;;;;;;22.00;19.13;;;18.40;69.10;;;;;;5053582;28;20388;-81
2021/06/29 01:56:16;;;;;;;23.73;21.10;;;18.40;69.60;;;;;;5054168;28;20025;-80
2021/06/29 01:58:59;;;;;;;23.25;20.85;;;18.40;69.20;;;;;;5043545;28;20036;-82
2021/06/29 02:01:25;;;;;;;23.85;19.38;;;18.30;69.00;;;;;;5053895;28;20038;-81
2021/06/29 02:03:51;;;;;;;22.38;19.98;;;18.30;69.00;;;;;;5053803;28;20101;-82
2021/06/29 02:06:17;;;;;;;25.25;20.23;;;18.30;69.10;;;;;;5054239;28;20111;-82
2021/06/29 02:08:44;;;;;;;23.83;21.33;;;18.30;69.10;;;;;;5057106;28;20511;-81
2021/06/29 02:11:10;;;;;;;23.67;21.27;;;18.30;69.10;;;;;;5064438;28;20028;-80
2021/06/29 02:13:37;;;;;;;27.38;22.65;;;18.30;69.10;;;;;;5074389;28;20041;-80
2021/06/29 02:16:04;;;;;;;23.35;20.83;;;18.30;69.20;;;;;;5072146;28;20036;-79
2021/06/29 02:18:30;;;;;;;22.70;20.30;;;18.30;69.10;;;;;;5076469;28;20024;-80
2021/06/29 02:20:57;;;;;;;25.67;22.38;;;18.20;69.00;;;;;;5073939;28;20100;-79
2021/06/29 02:23:24;;;;;;;22.17;19.20;;;18.20;69.00;;;;;;5058418;28;20119;-80
2021/06/29 02:25:51;;;;;;;22.98;20.00;;;18.20;69.10;;;;;;5053948;28;20033;-81
2021/06/29 02:28:18;;;;;;;24.38;19.98;;;18.20;69.10;;;;;;5053685;28;20029;-80
2021/06/29 02:30:44;;;;;;;22.13;20.00;;;18.20;69.10;;;;;;5053427;28;20400;-80
2021/06/29 02:33:10;;;;;;;23.33;20.85;;;18.20;69.10;;;;;;5043751;28;20447;-81
2021/06/29 02:35:37;;;;;;;21.80;19.45;;;18.20;69.20;;;;;;5035663;28;20029;-79
2021/06/29 02:38:04;;;;;;;22.88;20.55;;;18.20;69.20;;;;;;5053035;28;20048;-79
2021/06/29 02:40:31;;;;;;;22.50;20.35;;;18.20;69.20;;;;;;5052278;28;20388;-80
2021/06/29 02:42:58;;;;;;;23.80;21.30;;;18.10;69.00;;;;;;5050975;28;20504;-81
2021/06/29 02:45:26;;;;;;;21.60;19.33;;;18.10;69.10;;;;;;5052137;28;20388;-79
2021/06/29 02:47:53;;;;;;;23.98;21.52;;;18.10;69.10;;;;;;5052492;28;20132;-80
2021/06/29 02:50:20;;;;;;;21.88;19.63;;;18.10;69.10;;;;;;5052473;28;20561;-80
2021/06/29 02:52:46;;;;;;;21.52;19.33;;;18.10;69.10;;;;;;5052292;28;20112;-80
2021/06/29 02:55:14;;;;;;;22.50;20.15;;;18.10;69.10;;;;;;5051612;28;20033;-79
2021/06/29 02:57:42;;;;;;;21.02;18.70;;;18.10;69.10;;;;;;5052661;28;20400;-80
2021/06/29 03:00:11;;;;;;;22.13;19.40;;;18.10;69.10;;;;;;5051877;28;20396;-81
2021/06/29 03:02:37;;;;;;;21.75;19.55;;;18.10;69.20;;;;;;5031546;28;20338;-80
2021/06/29 03:05:04;;;;;;;21.08;18.95;;;18.10;69.20;;;;;;5032909;28;20029;-80
2021/06/29 03:07:31;;;;;;;21.33;19.23;;;18.10;69.20;;;;;;5032537;28;20037;-80
2021/06/29 03:09:57;;;;;;;23.30;21.00;;;18.10;69.20;;;;;;5027806;28;20025;-80
2021/06/29 03:12:24;;;;;;;21.67;19.48;;;18.00;69.00;;;;;;5011991;28;20382;-82
2021/06/29 03:14:55;;;;;;;21.48;19.40;;;18.00;69.10;;;;;;5032119;28;20025;-80
2021/06/29 03:17:21;;;;;;;23.58;20.02;;;18.00;69.10;;;;;;5031053;28;20028;-80
2021/06/29 03:19:47;;;;;;;22.48;18.52;;;18.00;69.10;;;;;;5031146;28;20033;-78
2021/06/29 03:22:13;;;;;;;20.48;18.23;;;18.00;69.10;;;;;;5014569;28;20034;-80
2021/06/29 03:24:39;;;;;;;22.60;20.27;;;18.00;69.10;;;;;;5032359;28;20056;-80
2021/06/29 03:27:05;;;;;;;22.33;20.00;;;17.90;68.90;;;;;;5032192;28;20052;-80
2021/06/29 03:29:32;;;;;;;20.27;18.38;;;17.90;68.90;;;;;;5032324;28;20033;-80
2021/06/29 03:31:58;;;;;;;24.08;19.60;;;17.90;68.90;;;;;;5047224;28;20556;-81
2021/06/29 03:34:24;;;;;;;19.77;17.75;;;17.90;69.00;;;;;;5031874;28;20076;-80
2021/06/29 03:36:50;;;;;;;20.20;18.30;;;17.90;69.00;;;;;;5032189;28;20061;-79
2021/06/29 03:39:16;;;;;;;18.98;16.98;;;17.80;68.90;;;;;;5032189;28;20033;-80
2021/06/29 03:41:42;;;;;;;19.83;17.67;;;17.90;69.10;;;;;;5031848;28;20026;-81
2021/06/29 03:44:08;;;;;;;21.15;18.92;;;17.90;69.10;;;;;;5024298;28;20051;-81
2021/06/29 03:46:34;;;;;;;20.20;18.13;;;17.80;68.90;;;;;;5047329;28;20501;-81
2021/06/29 03:49:00;;;;;;;21.13;19.00;;;17.80;68.90;;;;;;5031897;28;20022;-81
2021/06/29 03:51:26;;;;;;;21.15;19.13;;;17.80;69.00;;;;;;5030605;28;20040;-81
2021/06/29 03:53:52;;;;;;;20.65;18.75;;;17.80;69.00;;;;;;5029757;28;20033;-81
2021/06/29 03:56:24;;;;;;;19.75;17.77;;;17.80;69.00;;;;;;5031693;28;20025;-81
2021/06/29 03:58:54;;;;;;;21.58;19.17;;;17.80;69.00;;;;;;5030762;28;20084;-82
2021/06/29 04:01:20;;;;;;;20.55;18.40;;;17.80;69.00;;;;;;5030941;28;20100;-82
2021/06/29 04:03:47;;;;;;;20.38;18.17;;;17.70;68.80;;;;;;5031834;28;20388;-81
2021/06/29 04:06:14;;;;;;;22.08;19.77;;;17.80;69.00;;;;;;5031194;28;20037;-82
2021/06/29 04:08:40;;;;;;;20.63;18.52;;;17.80;69.00;;;;;;5031845;28;20036;-81
2021/06/29 04:11:06;;;;;;;23.10;20.70;;;17.80;69.00;;;;;;5031545;28;20030;-82
2021/06/29 04:13:32;;;;;;;20.27;18.35;;;17.80;69.00;;;;;;5021976;28;20029;-81
2021/06/29 04:15:58;;;;;;;21.35;19.35;;;17.70;68.90;;;;;;5031150;28;20124;-80
2021/06/29 04:18:24;;;;;;;21.25;19.05;;;17.80;69.10;;;;;;5046470;28;20056;-81
2021/06/29 04:20:50;;;;;;;20.77;18.75;;;17.70;68.90;;;;;;5031277;28;20440;-81
2021/06/29 04:23:16;;;;;;;21.00;19.00;;;17.70;68.90;;;;;;5031176;28;20030;-80
2021/06/29 04:25:42;;;;;;;20.88;19.00;;;17.70;68.90;;;;;;5029943;28;20045;-80
2021/06/29 04:28:08;;;;;;;21.20;19.35;;;17.70;68.90;;;;;;5031061;28;20359;-80
2021/06/29 04:30:34;;;;;;;21.92;19.73;;;17.70;68.90;;;;;;5030061;28;20029;-79
2021/06/29 04:33:00;;;;;;;21.80;19.55;;;17.70;68.90;;;;;;5031032;28;20045;-79
2021/06/29 04:35:26;;;;;;;22.00;19.25;;;17.70;68.90;;;;;;5029505;28;20037;-78
2021/06/29 04:37:52;;;;;;;20.92;18.92;;;17.70;69.00;;;;;;5031032;28;20512;-80
2021/06/29 04:40:18;;;;;;;21.00;18.83;;;17.70;68.90;;;;;;5030971;28;20026;-79
2021/06/29 04:42:46;;;;;;;21.65;19.58;;;17.70;69.00;;;;;;5031007;28;20030;-78
2021/06/29 04:45:13;;;;;;;21.08;18.98;;;17.60;68.80;;;;;;5048577;28;20638;-79
2021/06/29 04:47:44;;;;;;;20.23;18.38;;;17.60;68.90;;;;;;5039477;28;20437;-81
2021/06/29 04:50:12;;;;;;;21.73;19.73;;;17.60;68.90;;;;;;5046915;28;20570;-79
2021/06/29 04:52:37;;;;;;;22.25;20.15;;;17.60;68.80;;;;;;5047716;28;20055;-79
2021/06/29 04:55:04;;;;;;;21.17;19.08;;;17.60;68.80;;;;;;5046335;28;20033;-81
2021/06/29 04:57:30;;;;;;;22.40;20.05;;;17.60;68.90;;;;;;5047554;28;20025;-80
2021/06/29 04:59:56;;;;;;;20.42;18.42;;;17.60;68.90;;;;;;5047738;28;20271;-80
2021/06/29 05:02:22;;;;;;;22.30;20.00;;;17.60;68.90;;;;;;5045197;28;20033;-82
2021/06/29 05:04:48;;;;;;;20.38;18.55;;;17.60;68.90;;;;;;5045949;28;20025;-79
2021/06/29 05:07:14;;;;;;;21.67;19.60;;;17.60;68.90;;;;;;5049293;28;20041;-80
2021/06/29 05:09:40;;;;;;;21.83;19.83;;;17.60;68.90;;;;;;5050457;28;20468;-80
2021/06/29 05:12:06;;;;;;;20.80;18.88;;;17.60;69.00;;;;;;5049515;28;20033;-83
2021/06/29 05:14:33;;;;;;;21.10;19.13;;;17.60;68.90;;;;;;5050402;28;20024;-82
2021/06/29 05:16:59;;;;;;;21.35;19.25;;;17.60;68.90;;;;;;5049620;28;20039;-84
2021/06/29 05:19:25;;;;;;;21.40;19.50;;;17.60;69.00;;;;;;5048931;28;20488;-83
2021/06/29 05:21:51;;;;;;;20.33;18.35;;;17.60;68.90;;;;;;5049769;28;20055;-83
2021/06/29 05:24:17;;;;;;;20.98;18.85;;;17.50;68.80;;;;;;5048988;28;20079;-82
2021/06/29 05:26:43;;;;;;;22.38;20.23;;;17.50;69.30;;;;;;5048770;28;20396;-83
2021/06/29 05:29:09;;;;;;;19.92;18.08;;;17.50;68.80;;;;;;5050388;28;20028;-83
2021/06/29 05:31:35;;;;;;;21.85;19.75;;;17.60;69.00;;;;;;5032541;28;20427;-81
2021/06/29 05:34:01;;;;;;;21.60;19.50;;;17.60;69.00;;;;;;5050245;28;20029;-84
2021/06/29 05:36:27;;;;;;;21.02;19.05;;;17.60;69.00;;;;;;5026849;28;20021;-84
2021/06/29 05:38:53;;;;;;;21.27;19.17;;;17.60;68.90;;;;;;5037111;28;20080;-86
2021/06/29 05:41:19;;;;;;;20.90;19.10;;;17.70;69.10;;;;;;5043676;28;20032;-84
2021/06/29 05:43:45;;;;;;;22.40;19.98;;;17.70;69.00;;;;;;5038488;28;20029;-88
2021/06/29 05:46:13;;;;;;;19.98;18.05;;;17.70;69.00;;;;;;5038354;28;20037;-84
2021/06/29 05:48:39;;;;;;;20.52;18.60;;;17.80;69.10;;;;;;5072642;28;20037;-83
2021/06/29 05:51:05;;;;;;;19.48;17.75;;;17.80;69.10;;;;;;5059608;28;20030;-81
2021/06/29 05:53:32;;;;;;;22.40;20.13;;;17.80;69.10;;;;;;5052042;28;20029;-93
2021/06/29 05:55:58;;;;;;;21.95;19.75;;;17.90;69.30;;;;;;5072628;28;20388;-88
2021/06/29 05:58:24;;;;;;;23.98;21.60;;;17.90;69.60;;;;;;5045317;28;20355;-88
2021/06/29 06:00:50;;;;;;;24.73;22.13;;;18.00;70.10;;;;;;5049022;28;20032;-81
2021/06/29 06:03:17;;;;;;;23.45;21.30;;;18.00;70.30;;;;;;5064581;28;20034;-84
2021/06/29 06:05:43;;;;;;;24.25;21.95;;;18.10;70.80;;;;;;5047866;28;20064;-83
2021/06/29 06:08:10;;;;;;;23.63;21.42;;;18.10;71.00;;;;;;5030783;28;20029;-81
2021/06/29 06:10:38;;;;;;;25.02;22.58;;;18.10;71.10;;;;;;5031188;28;20055;-79
2021/06/29 06:13:07;;;;;;;23.88;21.52;;;18.20;71.30;;;;;;5040824;28;20089;-79
2021/06/29 06:15:33;;;;;;;22.10;19.95;;;18.20;71.30;;;;;;5050445;28;20116;-81
2021/06/29 06:18:03;;;;;;;22.08;19.98;;;18.20;71.30;;;;;;5050022;28;20182;-82
2021/06/29 06:20:56;;;;;;;23.27;20.95;;;18.20;71.40;;;;;;5050280;28;20029;-82
2021/06/29 06:23:22;;;;;;;21.52;19.52;;;18.20;71.30;;;;;;5044325;28;20071;-83
2021/06/29 06:25:48;;;;;;;21.60;19.55;;;18.20;71.20;;;;;;5050319;28;20123;-84
2021/06/29 06:28:14;;;;;;;21.70;19.50;;;18.20;71.20;;;;;;5057995;28;20044;-88
2021/06/29 06:30:41;;;;;;;21.98;19.95;;;18.30;71.40;;;;;;5022354;28;20488;-83
2021/06/29 06:33:08;;;;;;;20.70;18.52;;;18.20;71.20;;;;;;5035505;28;20094;-86
2021/06/29 06:35:35;;;;;;;21.40;19.42;;;18.20;71.10;;;;;;5061212;28;20034;-81
2021/06/29 06:38:02;;;;;;;21.48;17.60;;;18.20;71.10;;;;;;5044704;28;20033;-83
2021/06/29 06:40:28;;;;;;;21.00;19.10;;;18.20;71.10;;;;;;5049133;28;20025;-81
2021/06/29 06:42:55;;;;;;;20.40;18.40;;;18.30;71.20;;;;;;5054136;28;20139;-87
2021/06/29 06:45:24;;;;;;;22.40;19.90;;;18.30;71.20;;;;;;5029592;28;20041;-84
2021/06/29 06:47:54;;;;;;;23.48;21.15;;;18.30;71.40;;;;;;5045195;28;20029;-84
2021/06/29 06:50:21;;;;;;;23.08;20.77;;;18.30;71.60;;;;;;5011758;28;20136;-84
2021/06/29 06:52:49;;;;;;;20.67;18.75;;;18.40;71.80;;;;;;5022800;28;20029;-84
2021/06/29 06:55:19;;;;;;;29.00;20.17;;;18.40;71.90;;;;;;5049788;28;20028;-81
2021/06/29 06:57:45;;;;;;;22.85;20.63;;;18.50;72.10;;;;;;5042893;28;20039;-84
2021/06/29 07:00:12;;;;;;;21.48;19.33;;;18.60;72.20;;;;;;5044889;28;20029;-83
2021/06/29 07:02:40;;;;;;;20.75;18.60;;;18.60;72.10;;;;;;5055253;28;20033;-80
2021/06/29 07:05:07;;;;;;;21.23;18.90;;;18.60;72.00;;;;;;5026156;28;20095;-80
2021/06/29 07:07:33;;;;;;;20.20;18.13;;;18.70;72.10;;;;;;5026458;28;20064;-78
2021/06/29 07:10:00;;;;;;;21.00;18.48;;;18.60;71.90;;;;;;5026517;28;20429;-80
2021/06/29 07:12:26;;;;;;;21.55;19.45;;;18.70;72.10;;;;;;5025110;28;20037;-79
2021/06/29 07:14:52;;;;;;;20.55;18.77;;;18.70;72.00;;;;;;5026542;28;20385;-82
2021/06/29 07:17:18;;;;;;;20.75;18.85;;;18.80;72.10;;;;;;5027363;28;20382;-82
2021/06/29 07:19:44;;;;;;;20.00;18.20;;;18.80;72.00;;;;;;5046807;28;20029;-80
2021/06/29 07:22:10;;;;;;;20.58;18.73;;;18.90;72.00;;;;;;5045717;28;20396;-80
2021/06/29 07:24:36;;;;;;;20.02;18.25;;;19.00;72.10;;;;;;5044801;28;20033;-80
2021/06/29 07:27:04;;;;;;;19.60;17.58;;;19.00;71.90;;;;;;5044473;28;20381;-79
2021/06/29 07:29:31;;;;;;;19.52;17.65;;;19.10;71.90;;;;;;5045302;28;20330;-80
2021/06/29 07:31:57;;;;;;;21.00;19.02;;;19.10;71.80;;;;;;5044947;28;20114;-80
2021/06/29 07:34:23;;;;;;;20.70;18.55;;;19.20;71.90;;;;;;5045733;28;20033;-86
2021/06/29 07:36:49;;;;;;;19.85;17.85;;;19.20;71.80;;;;;;5047219;28;20029;-79
2021/06/29 07:39:15;;;;;;;20.52;18.73;;;19.30;71.80;;;;;;5047114;28;20033;-79
2021/06/29 07:41:41;;;;;;;21.17;19.10;;;19.40;71.90;;;;;;5048472;28;20090;-82
2021/06/29 07:44:07;;;;;;;20.23;18.42;;;19.40;71.70;;;;;;5047364;28;20427;-79
2021/06/29 07:46:33;;;;;;;19.77;17.95;;;19.50;71.70;;;;;;5046418;28;20133;-84
2021/06/29 07:48:59;;;;;;;19.45;17.70;;;19.60;71.60;;;;;;5047385;28;20036;-77
2021/06/29 07:51:25;;;;;;;20.23;17.92;;;19.70;71.70;;;;;;5047593;28;20397;-79
2021/06/29 07:53:51;;;;;;;20.23;18.08;;;19.80;71.70;;;;;;5046988;28;20036;-79
2021/06/29 07:56:17;;;;;;;19.88;18.05;;;19.80;71.50;;;;;;5047260;28;20033;-80
2021/06/29 07:58:45;;;;;;;20.30;18.30;;;19.90;71.60;;;;;;5029309;28;20333;-83
2021/06/29 08:01:14;;;;;;;19.40;17.60;;;19.90;71.40;;;;;;5045863;28;20037;-83
2021/06/29 08:03:41;;;;;;;20.13;18.08;;;19.90;71.30;;;;;;5025979;28;20061;-79
2021/06/29 08:06:07;;;;;;;19.90;18.10;;;20.00;71.40;;;;;;5027408;28;20488;-83
2021/06/29 08:08:34;;;;;;;20.17;18.27;;;20.00;71.20;;;;;;5025882;28;20026;-83
2021/06/29 08:11:02;;;;;;;19.40;17.70;;;20.00;71.20;;;;;;5026944;28;20040;-82
2021/06/29 08:13:28;;;;;;;17.80;16.05;;;20.10;71.20;;;;;;5026703;28;20577;-83
2021/06/29 08:15:54;;;;;;;18.23;16.33;;;20.10;71.20;;;;;;5027252;28;20543;-82
2021/06/29 08:18:23;;;;;;;19.20;17.20;;;20.10;71.10;;;;;;5026837;28;20036;-82
2021/06/29 08:20:49;;;;;;;18.65;17.02;;;20.10;71.00;;;;;;5027263;28;20542;-82
2021/06/29 08:23:15;;;;;;;18.52;16.73;;;20.20;71.10;;;;;;5026743;28;20037;-82
2021/06/29 08:25:43;;;;;;;17.73;16.02;;;20.20;71.00;;;;;;5026895;28;20508;-82
2021/06/29 08:28:13;;;;;;;19.35;17.48;;;20.20;71.00;;;;;;5027164;28;20573;-82
2021/06/29 08:30:40;;;;;;;17.52;15.93;;;20.30;71.00;;;;;;5027316;28;20083;-82
2021/06/29 08:33:10;;;;;;;18.02;16.23;;;20.30;70.90;;;;;;5026445;28;20068;-82
2021/06/29 08:35:38;;;;;;;17.08;15.50;;;20.30;70.80;;;;;;5026180;28;20057;-83
2021/06/29 08:38:05;;;;;;;17.35;15.73;;;20.40;70.90;;;;;;5030850;28;20090;-82
2021/06/29 08:40:33;;;;;;;16.88;15.48;;;20.40;71.20;;;;;;5046156;28;20033;-82
2021/06/29 08:42:59;;;;;;;18.55;16.65;;;20.40;70.80;;;;;;5037982;28;20098;-80
2021/06/29 08:45:25;;;;;;;16.67;15.18;;;20.50;70.90;;;;;;5026611;28;20479;-80
2021/06/29 08:47:51;;;;;;;17.95;16.35;;;20.60;70.90;;;;;;5031555;28;20495;-80
2021/06/29 08:50:18;;;;;;;17.08;15.35;;;20.60;70.70;;;;;;5045004;28;20048;-84
2021/06/29 08:52:44;;;;;;;17.42;15.82;;;20.60;71.20;;;;;;5035011;28;20465;-83
2021/06/29 08:55:12;;;;;;;17.23;15.43;;;20.70;70.70;;;;;;5029540;28;20032;-81
2021/06/29 08:57:38;;;;;;;17.58;15.80;;;20.80;70.70;;;;;;5027857;28;20501;-80
2021/06/29 09:00:11;;;;;;;17.02;15.52;;;20.90;70.70;;;;;;5046301;28;20025;-80
2021/06/29 09:02:40;;;;;;;17.15;15.57;;;21.00;70.60;;;;;;5046616;28;20025;-83
2021/06/29 09:05:32;;;;;;;16.65;15.15;;;21.10;70.60;;;;;;5044753;28;20037;-81
2021/06/29 09:08:07;;;;;;;17.33;15.13;;;21.10;70.40;;;;;;5044418;28;20374;-84
2021/06/29 09:10:36;;;;;;;16.50;15.02;;;21.20;70.40;;;;;;5045020;28;20036;-80
2021/06/29 09:13:05;;;;;;;16.17;14.75;;;21.20;70.30;;;;;;5038176;28;20030;-82
2021/06/29 09:15:42;;;;;;;15.82;14.30;;;21.30;70.30;;;;;;5025375;28;20465;-80
2021/06/29 09:18:20;;;;;;;16.05;14.65;;;21.30;70.20;;;;;;5032047;28;20040;-81
2021/06/29 09:20:51;;;;;;;15.70;14.18;;;21.30;70.10;;;;;;5044937;28;20054;-82
2021/06/29 09:23:32;;;;;;;14.23;12.90;;;21.40;70.20;;;;;;5035119;28;20393;-87
2021/06/29 09:26:12;;;;;;;16.85;15.35;;;21.40;70.10;;;;;;5027297;28;20589;-83
2021/06/29 09:28:40;;;;;;;14.68;13.43;;;21.50;70.20;;;;;;5025044;28;20040;-80
2021/06/29 09:31:12;;;;;;;15.57;13.88;;;21.50;70.10;;;;;;5025662;28;20040;-81
2021/06/29 09:33:41;;;;;;;17.25;13.57;;;21.50;70.00;;;;;;5038444;28;20052;-82
2021/06/29 09:36:11;;;;;;;15.80;14.45;;;21.50;69.90;;;;;;5046376;28;20052;-82
2021/06/29 09:38:39;;;;;;;14.18;12.70;;;21.50;69.80;;;;;;5046351;28;20385;-86
2021/06/29 09:41:08;;;;;;;14.45;13.07;;;21.60;69.90;;;;;;5045182;28;20627;-85
2021/06/29 09:43:39;;;;;;;14.50;13.30;;;21.60;69.90;;;;;;5045154;28;20498;-85
2021/06/29 09:46:09;;;;;;;14.07;12.88;;;21.60;69.80;;;;;;5046585;28;20041;-83
2021/06/29 09:48:58;;;;;;;14.18;12.98;;;21.60;69.80;;;;;;5035503;28;20129;-83
2021/06/29 09:51:29;;;;;;;14.30;12.95;;;21.70;69.80;;;;;;5045069;28;20496;-82
2021/06/29 09:58:08;;;;;;;14.80;13.35;;;21.80;69.80;;;;;;5050376;28;20037;-81
2021/06/29 10:00:44;;;;;;;14.57;13.18;;;21.80;69.60;;;;;;5050680;28;20057;-83
2021/06/29 10:03:20;;;;;;;15.48;14.07;;;21.90;69.70;;;;;;5030062;28;20029;-83
2021/06/29 10:05:48;;;;;;;13.07;11.90;;;21.90;69.60;;;;;;5029787;28;20037;-84
2021/06/29 10:08:31;;;;;;;13.10;11.98;;;21.90;69.50;;;;;;5029868;28;20026;-84
2021/06/29 10:11:19;;;;;;;14.88;13.65;;;22.00;69.60;;;;;;5029276;28;20075;-83
2021/06/29 10:14:10;;;;;;;13.75;12.45;;;22.00;69.50;;;;;;5028779;28;20064;-80
2021/06/29 10:16:45;;;;;;;13.85;12.75;;;22.00;69.50;;;;;;5033851;28;20531;-82
2021/06/29 10:19:47;;;;;;;12.82;11.82;;;22.10;69.50;;;;;;5046360;28;20567;-81
2021/06/29 10:22:13;;;;;;;13.35;12.02;;;22.20;69.60;;;;;;5050285;28;20036;-83
2021/06/29 10:25:02;;;;;;;13.15;12.05;;;22.30;69.60;;;;;;5051275;28;20025;-83
2021/06/29 10:27:29;;;;;;;12.85;11.70;;;22.40;69.60;;;;;;5051078;28;20040;-82
2021/06/29 10:29:55;;;;;;;12.75;11.65;;;22.40;69.40;;;;;;5029522;28;20037;-82
2021/06/29 10:32:25;;;;;;;12.88;11.55;;;22.50;69.50;;;;;;5029667;28;20469;-83
2021/06/29 10:34:52;;;;;;;12.30;11.35;;;22.60;69.60;;;;;;5011785;28;20030;-83
2021/06/29 10:37:18;;;;;;;13.27;12.15;;;22.60;69.40;;;;;;5029436;28;20037;-82
2021/06/29 10:39:44;;;;;;;11.70;10.70;;;22.70;69.40;;;;;;5027948;28;20025;-83
2021/06/29 10:42:14;;;;;;;12.45;11.35;;;22.80;69.50;;;;;;5029339;28;20026;-82
2021/06/29 10:44:47;;;;;;;11.52;10.63;;;22.80;69.30;;;;;;5038243;28;20029;-79
2021/06/29 10:47:26;;;;;;;11.13;10.30;;;22.90;69.40;;;;;;5048383;28;20041;-80
2021/06/29 10:49:53;;;;;;;11.68;10.68;;;23.00;69.40;;;;;;5025707;28;20034;-81
2021/06/29 10:52:22;;;;;;;12.05;11.00;;;23.10;69.50;;;;;;5039868;28;20060;-81
2021/06/29 10:55:17;;;;;;;11.38;10.38;;;23.20;69.50;;;;;;5046538;28;20036;-79
2021/06/29 10:57:44;;;;;;;;;;;23.30;69.50;;;;;;5045213;28;20033;-81
2021/06/29 11:00:16;;;;;;;11.65;10.65;;;23.40;69.60;;;;;;5048179;28;19909;-80
2021/06/29 11:03:00;;;;;;;11.48;10.40;;;23.50;69.50;;;;;;5046318;28;20131;-80
2021/06/29 11:05:27;;;;;;;;;;;23.60;69.50;;;;;;5046753;28;20044;-81
2021/06/29 11:08:24;;;;;;;10.27;9.27;;;23.70;69.60;;;;;;5047809;28;19966;-82
2021/06/29 11:10:52;;;;;;;11.45;10.45;;;23.80;69.50;;;;;;5046636;28;20064;-81
2021/06/29 11:13:38;;;;;;;11.18;10.23;;;24.00;69.60;;;;;;5047539;28;20036;-81
2021/06/29 11:16:04;;;;;;;9.93;9.13;;;24.10;69.60;;;;;;5047595;28;20501;-80
2021/06/29 11:18:44;;;;;;;11.27;10.13;;;24.20;69.50;;;;;;5039916;28;20028;-82
2021/06/29 11:21:23;;;;;;;13.25;12.02;;;24.30;69.50;;;;;;5030197;28;20050;-80
2021/06/29 11:23:49;;;;;;;13.88;12.25;;;24.40;68.50;;;;;;5042644;28;20036;-82
2021/06/29 11:26:18;;;;;;;14.23;12.75;;;24.50;67.40;;;;;;5060743;28;20041;-81
2021/06/29 11:28:49;;;;;;;14.30;12.93;;;24.40;66.10;;;;;;5047300;28;20025;-80
2021/06/29 11:31:25;;;;;;;13.95;12.43;;;24.30;65.70;;;;;;5047527;28;20029;-79
2021/06/29 11:33:57;;;;;;;13.80;12.65;;;24.30;65.70;;;;;;5047857;28;20036;-84
2021/06/29 11:36:29;;;;;;;13.02;11.48;;;24.30;65.50;;;;;;5043469;28;20132;-83
2021/06/29 11:39:13;;;;;;;13.77;12.27;;;24.40;65.70;;;;;;5056456;28;20033;-82
2021/06/29 11:41:41;;;;;;;13.82;11.63;;;24.50;65.60;;;;;;5047014;28;20380;-83
2021/06/29 11:44:07;;;;;;;11.70;10.32;;;24.60;65.60;;;;;;5031065;28;20053;-82
2021/06/29 11:46:45;;;;;;;12.57;11.38;;;24.70;65.70;;;;;;5028683;28;20092;-82
2021/06/29 11:49:14;;;;;;;12.57;11.02;;;24.80;65.60;;;;;;5025194;28;20033;-83
2021/06/29 11:51:54;;;;;;;11.68;10.57;;;24.90;65.70;;;;;;5047974;28;20180;-84
2021/06/29 11:54:39;;;;;;;12.20;11.00;;;25.10;65.70;;;;;;5048448;28;20079;-85
2021/06/29 11:57:17;;;;;;;11.40;10.20;;;25.20;65.60;;;;;;5047327;28;20041;-87
2021/06/29 11:59:44;;;;;;;10.23;9.18;;;25.40;65.50;;;;;;5047944;28;20101;-85
2021/06/29 12:02:25;;;;;;;11.35;10.18;;;25.60;65.40;;;;;;5031110;28;20485;-82
2021/06/29 12:04:58;;;;;;;10.40;9.40;;;25.80;65.30;;;;;;5045836;28;20029;-86
2021/06/29 12:07:45;;;;;;;10.15;8.57;;;26.00;65.00;;;;;;5045661;28;20033;-85
2021/06/29 12:10:25;;;;;;;9.77;8.82;;;26.20;64.90;;;;;;5029313;28;20082;-85
2021/06/29 12:13:12;;;;;;;10.27;9.30;;;26.30;64.70;;;;;;5025774;28;20053;-85
2021/06/29 12:15:43;;;;;;;9.32;8.43;;;26.40;64.70;;;;;;5024741;28;20037;-87
2021/06/29 12:18:12;;;;;;;9.30;8.30;;;26.40;64.60;;;;;;5027392;28;20036;-84
2021/06/29 12:20:41;;;;;;;9.27;7.72;;;26.50;64.60;;;;;;5025981;28;20036;-82
2021/06/29 12:23:12;;;;;;;10.60;8.45;;;26.50;64.50;;;;;;5034730;28;20094;-86
2021/06/29 12:25:41;;;;;;;8.02;7.32;;;26.60;64.50;;;;;;5047767;28;20037;-86
2021/06/29 12:28:20;;;;;;;8.48;7.65;;;26.70;64.40;;;;;;5045405;28;20434;-84
2021/06/29 12:30:52;;;;;;;8.43;7.53;;;26.70;64.90;;;;;;5041008;28;20484;-83
2021/06/29 12:33:25;;;;;;;8.95;8.05;;;26.80;64.30;;;;;;5042042;28;20387;-84
2021/06/29 12:35:52;;;;;;;;;;;26.90;64.20;;;;;;5046684;28;20059;-81
2021/06/29 12:38:24;;;;;;;8.52;7.18;;;27.10;64.40;;;;;;5043949;28;19908;-82
2021/06/29 12:40:57;;;;;;;7.63;6.93;;;27.20;64.10;;;;;;5046889;28;20027;-81
2021/06/29 12:43:28;;;;;;;7.13;6.50;;;27.30;63.90;;;;;;5046035;28;20060;-80
2021/06/29 12:45:55;;;;;;;7.13;6.53;;;27.40;63.80;;;;;;5046391;28;20145;-81